Terminal Aerodrome Forecast
Issued by NWS

Home | Current Version | Previous Version | Graphics & Text | Print | Product List | Glossary On
Versions: 1 2 3 4 5 6 7 8 9 10 11 12 13 14 15 16 17 18 19 20 21
000
FTUS43 KTOP 151700
TAFFOE
TAF
KFOE 151720Z 1518/1618 13014KT P6SM BKN045
     FM160100 12006KT P6SM OVC022
     FM160700 12004KT 3SM BR SCT010 OVC012
     FM161700 13010KT P6SM SCT040=

USA.gov is the U.S. government's official web portal to all federal, state and local government web resources and services.